createdAt,value
2022-11-28T00:02:09.254Z,125.40
2022-11-28T00:04:46.906Z,112.83
2022-11-28T00:07:24.274Z,122.50
2022-11-28T00:10:10.138Z,133.33
2022-11-28T00:12:46.847Z,122.00
2022-11-28T00:15:29.155Z,117.97
2022-11-28T00:18:06.245Z,121.93
2022-11-28T00:20:45.870Z,111.53
2022-11-28T00:23:30.109Z,103.47
2022-11-28T00:26:15.515Z,109.47
2022-11-28T00:28:55.085Z,102.43
2022-11-28T00:31:44.275Z,99.93
2022-11-28T00:34:23.093Z,99.37
2022-11-28T00:37:05.684Z,102.50
2022-11-28T00:39:43.709Z,106.87
2022-11-28T00:42:27.749Z,103.93
2022-11-28T00:45:10.879Z,109.40
2022-11-28T00:47:50.320Z,102.47
2022-11-28T00:50:27.239Z,101.33
2022-11-28T00:53:04.439Z,103.73
2022-11-28T00:55:51.291Z,112.00
2022-11-28T00:58:30.613Z,112.20
2022-11-28T01:01:16.831Z,117.00
2022-11-28T01:04:02.879Z,139.27
2022-11-28T01:06:43.926Z,130.30
2022-11-28T01:09:38.901Z,137.03
2022-11-28T01:12:19.663Z,142.77
2022-11-28T01:15:10.414Z,150.90
2022-11-28T01:17:51.991Z,165.93
2022-11-28T01:20:28.886Z,158.57
2022-11-28T01:23:17.519Z,163.53
2022-11-28T01:26:03.651Z,174.37
2022-11-28T01:28:42.941Z,163.43
2022-11-28T01:31:35.657Z,171.70
2022-11-28T01:34:16.178Z,170.00
2022-11-28T01:36:56.658Z,170.33
2022-11-28T01:39:49.369Z,172.03
2022-11-28T01:42:28.009Z,158.73
2022-11-28T01:45:28.031Z,159.13
2022-11-28T01:48:25.991Z,160.70
2022-11-28T01:51:08.131Z,152.43
2022-11-28T01:53:52.007Z,148.53
2022-11-28T01:56:34.092Z,145.57
2022-11-28T01:59:19.057Z,143.83
2022-11-28T02:02:03.151Z,143.43
2022-11-28T02:04:43.078Z,152.70
2022-11-28T02:07:24.288Z,141.67
2022-11-28T02:10:05.262Z,144.07
2022-11-28T02:13:08.028Z,143.17
2022-11-28T02:16:04.170Z,152.97
2022-11-28T02:19:07.658Z,147.67
2022-11-28T02:22:00.132Z,146.80
2022-11-28T02:25:02.688Z,153.17
2022-11-28T02:28:16.368Z,155.87
2022-11-28T02:31:01.903Z,148.83
2022-11-28T02:33:53.946Z,152.53
2022-11-28T02:36:44.035Z,147.00
2022-11-28T02:39:38.257Z,147.27
2022-11-28T02:42:20.475Z,143.83
2022-11-28T02:45:16.480Z,150.70
2022-11-28T02:48:11.111Z,136.13
2022-11-28T02:50:56.173Z,134.07
2022-11-28T02:53:40.266Z,137.67
2022-11-28T02:56:31.148Z,133.33
2022-11-28T02:59:09.375Z,122.10
2022-11-28T03:01:50.228Z,125.20
2022-11-28T03:04:50.420Z,127.57
2022-11-28T03:07:55.524Z,121.93
2022-11-28T03:10:43.632Z,117.37
2022-11-28T03:13:35.246Z,127.97
2022-11-28T03:16:28.188Z,128.55
2022-11-28T03:19:18.387Z,126.00
2022-11-28T03:22:16.427Z,135.57
2022-11-28T03:25:12.068Z,136.07
2022-11-28T03:28:00.441Z,138.20
2022-11-28T03:31:00.895Z,132.63
2022-11-28T03:33:47.967Z,137.37
2022-11-28T03:36:34.390Z,132.90
2022-11-28T03:39:15.078Z,134.90
2022-11-28T03:42:00.291Z,140.00
2022-11-28T03:44:45.369Z,131.20
2022-11-28T03:47:32.643Z,139.80
2022-11-28T03:50:14.169Z,132.03
2022-11-28T03:53:01.227Z,129.00
2022-11-28T03:55:49.004Z,134.73
2022-11-28T03:58:34.499Z,139.27
2022-11-28T04:01:25.307Z,135.63
2022-11-28T04:04:29.421Z,137.73
2022-11-28T04:07:21.699Z,147.37
2022-11-28T04:10:20.997Z,143.03
2022-11-28T04:13:11.711Z,125.27
2022-11-28T04:16:02.020Z,121.27
2022-11-28T04:18:54.561Z,128.93
2022-11-28T04:21:39.377Z,136.17
2022-11-28T04:24:31.782Z,141.40
2022-11-28T04:27:12.986Z,134.63
2022-11-28T04:30:03.063Z,140.20
2022-11-28T04:33:13.419Z,133.33
2022-11-28T04:36:04.004Z,139.80
2022-11-28T04:38:45.000Z,138.77
2022-11-28T04:41:28.290Z,148.90
2022-11-28T04:44:16.677Z,135.83
2022-11-28T04:46:57.969Z,141.37
2022-11-28T04:49:39.676Z,140.90
2022-11-28T04:52:27.889Z,132.70
2022-11-28T04:55:25.125Z,131.40
2022-11-28T04:58:11.188Z,129.63
2022-11-28T05:00:56.634Z,127.77
2022-11-28T05:03:42.273Z,126.93
2022-11-28T05:06:35.690Z,120.53
2022-11-28T05:09:21.885Z,120.40
2022-11-28T05:12:14.517Z,125.83
2022-11-28T05:15:01.203Z,122.83
2022-11-28T05:17:42.605Z,129.00
2022-11-28T05:20:23.525Z,121.70
2022-11-28T05:23:06.632Z,125.33
2022-11-28T05:25:52.146Z,124.87
2022-11-28T05:28:34.545Z,114.17
2022-11-28T05:31:20.543Z,121.37
2022-11-28T05:34:10.910Z,124.17
2022-11-28T05:36:49.394Z,128.53
2022-11-28T05:39:43.208Z,115.00
2022-11-28T05:42:35.436Z,124.90
2022-11-28T05:45:15.282Z,114.90
2022-11-28T05:47:56.959Z,125.70
2022-11-28T05:50:39.911Z,128.70
2022-11-28T05:53:20.833Z,119.90
2022-11-28T05:56:08.511Z,122.07
2022-11-28T05:59:01.232Z,123.77
2022-11-28T06:01:40.199Z,105.63
2022-11-28T06:04:17.910Z,95.10
2022-11-28T06:07:09.057Z,92.30
2022-11-28T06:09:53.035Z,95.10
2022-11-28T06:12:34.439Z,93.00
2022-11-28T06:15:21.643Z,85.87
2022-11-28T06:18:09.363Z,93.30
2022-11-28T06:20:47.553Z,95.20
2022-11-28T06:23:24.931Z,91.30
2022-11-28T06:26:08.530Z,90.97
2022-11-28T06:28:51.301Z,96.63
2022-11-28T06:31:38.598Z,74.90
2022-11-28T06:34:20.208Z,72.97
2022-11-28T06:37:03.080Z,77.60
2022-11-28T06:39:46.774Z,68.63
2022-11-28T06:42:34.032Z,70.10
2022-11-28T06:45:20.914Z,70.53
2022-11-28T06:48:02.189Z,65.30
2022-11-28T06:51:00.568Z,71.40
2022-11-28T06:53:50.333Z,67.67
2022-11-28T06:56:34.072Z,66.90
2022-11-28T06:59:20.800Z,87.03
2022-11-28T07:02:02.960Z,86.10
2022-11-28T07:04:50.743Z,78.53
2022-11-28T07:07:53.567Z,65.37
2022-11-28T07:10:43.514Z,72.17
2022-11-28T07:13:25.781Z,68.77
2022-11-28T07:16:03.957Z,64.27
2022-11-28T07:18:47.733Z,64.80
2022-11-28T07:21:30.071Z,57.13
2022-11-28T07:24:07.745Z,60.60
2022-11-28T07:27:00.678Z,62.13
2022-11-28T07:29:40.838Z,57.13
2022-11-28T07:32:30.335Z,64.07
2022-11-28T07:35:10.023Z,64.87
2022-11-28T07:38:03.298Z,61.03
2022-11-28T07:40:48.842Z,62.43
2022-11-28T07:43:29.184Z,61.53
2022-11-28T07:46:30.626Z,65.70
2022-11-28T07:49:10.385Z,60.97
2022-11-28T07:51:52.011Z,68.23
2022-11-28T07:54:43.712Z,63.17
2022-11-28T07:57:34.210Z,69.63
2022-11-28T08:00:12.343Z,67.77
2022-11-28T08:03:01.838Z,73.10
2022-11-28T08:05:39.027Z,73.30
2022-11-28T08:08:38.184Z,75.23
2022-11-28T08:11:31.487Z,71.30
2022-11-28T08:14:09.223Z,72.83
2022-11-28T08:16:53.451Z,75.10
2022-11-28T08:19:42.500Z,75.57
2022-11-28T08:22:23.025Z,67.60
2022-11-28T08:25:06.310Z,67.90
2022-11-28T08:27:47.285Z,66.43
2022-11-28T08:30:30.876Z,62.50
2022-11-28T08:33:16.438Z,61.50
2022-11-28T08:35:57.488Z,66.73
2022-11-28T08:39:03.577Z,64.77
2022-11-28T08:41:46.918Z,61.97
2022-11-28T08:44:37.051Z,70.57
2022-11-28T08:47:26.865Z,64.70
2022-11-28T08:50:29.645Z,64.97
2022-11-28T08:53:09.256Z,66.47
2022-11-28T08:55:50.826Z,60.97
2022-11-28T08:58:40.037Z,61.80
2022-11-28T09:01:32.787Z,58.97
2022-11-28T09:04:16.417Z,58.27
2022-11-28T09:07:06.037Z,65.87
2022-11-28T09:09:51.757Z,69.33
2022-11-28T09:12:40.802Z,71.50
2022-11-28T09:15:27.442Z,72.20
2022-11-28T09:18:11.219Z,76.10
2022-11-28T09:20:55.789Z,78.07
2022-11-28T09:23:36.819Z,74.03
2022-11-28T09:26:23.407Z,69.50
2022-11-28T09:29:12.439Z,71.13
2022-11-28T09:32:00.660Z,62.60
2022-11-28T09:34:46.087Z,66.90
2022-11-28T09:37:30.227Z,66.20
2022-11-28T09:40:32.500Z,66.87
2022-11-28T09:43:20.373Z,50.10
2022-11-28T09:46:05.744Z,48.77
2022-11-28T09:48:56.580Z,53.77
2022-11-28T09:51:40.138Z,51.40
2022-11-28T09:54:25.040Z,51.83
2022-11-28T09:57:13.038Z,50.17
2022-11-28T09:59:52.524Z,44.93
2022-11-28T10:02:47.366Z,46.57
2022-11-28T10:05:53.731Z,50.67
2022-11-28T10:08:53.057Z,50.20
2022-11-28T10:11:47.585Z,50.33
2022-11-28T10:15:05.651Z,50.07
2022-11-28T10:17:56.906Z,51.13
2022-11-28T10:20:39.235Z,50.20
2022-11-28T10:23:29.594Z,54.47
2022-11-28T10:26:20.483Z,53.60
2022-11-28T10:29:07.096Z,55.03
2022-11-28T10:32:01.999Z,53.70
2022-11-28T10:34:52.881Z,59.77
2022-11-28T10:37:37.449Z,53.27
2022-11-28T10:40:43.945Z,52.47
2022-11-28T10:43:36.453Z,69.50
2022-11-28T10:46:39.355Z,56.73
2022-11-28T10:49:40.802Z,65.27
2022-11-28T10:52:40.950Z,63.43
2022-11-28T10:55:33.952Z,54.03
2022-11-28T10:58:23.338Z,64.00
2022-11-28T11:01:20.375Z,55.73
2022-11-28T11:04:05.648Z,60.60
2022-11-28T11:07:08.431Z,65.43
2022-11-28T11:09:57.615Z,61.23
2022-11-28T11:12:51.665Z,60.30
2022-11-28T11:15:43.256Z,59.13
2022-11-28T11:18:47.626Z,62.73
2022-11-28T11:21:29.410Z,65.50
2022-11-28T11:24:29.920Z,57.67
2022-11-28T11:27:36.141Z,58.67
2022-11-28T11:30:42.226Z,60.10
2022-11-28T11:33:28.294Z,62.90
2022-11-28T11:36:46.166Z,56.97
2022-11-28T11:39:34.596Z,62.40
2022-11-28T11:42:29.781Z,59.67
2022-11-28T11:45:36.759Z,64.20
2022-11-28T11:48:26.795Z,58.50
2022-11-28T11:51:29.563Z,64.00
2022-11-28T11:54:31.782Z,56.17
2022-11-28T11:57:34.862Z,57.17
2022-11-28T12:00:44.821Z,58.30
2022-11-28T12:03:34.147Z,61.47
2022-11-28T12:06:24.877Z,55.20
2022-11-28T12:09:10.478Z,69.07
2022-11-28T12:11:54.497Z,57.13
2022-11-28T12:14:43.234Z,60.03
2022-11-28T12:17:49.506Z,58.07
2022-11-28T12:21:01.908Z,62.87
2022-11-28T12:24:11.262Z,66.43
2022-11-28T12:27:13.218Z,59.60
2022-11-28T12:30:19.715Z,56.70
2022-11-28T12:33:26.183Z,59.80
2022-11-28T12:36:21.060Z,51.80
2022-11-28T12:39:43.876Z,52.60
2022-11-28T12:43:17.514Z,60.03
2022-11-28T12:46:17.386Z,58.00
2022-11-28T12:49:08.408Z,64.53
2022-11-28T12:52:12.414Z,54.83
2022-11-28T12:55:28.375Z,61.73
2022-11-28T12:58:23.210Z,59.03
2022-11-28T13:05:31.566Z,53.77
2022-11-28T13:09:00.991Z,58.13
2022-11-28T13:12:31.713Z,52.07
2022-11-28T13:15:27.876Z,57.53
2022-11-28T13:18:14.865Z,58.57
2022-11-28T13:21:03.860Z,60.37
2022-11-28T13:27:54.351Z,62.50
2022-11-28T13:30:45.608Z,54.37
2022-11-28T13:40:47.946Z,51.73
2022-11-28T13:43:44.078Z,57.93
2022-11-28T13:46:26.069Z,58.57
2022-11-28T13:49:21.265Z,52.73
2022-11-28T13:52:54.542Z,58.07
2022-11-28T13:55:51.430Z,60.07
2022-11-28T13:58:50.653Z,63.20
2022-11-28T14:02:02.892Z,62.17
2022-11-28T14:04:52.804Z,60.57
2022-11-28T14:07:48.020Z,63.40
2022-11-28T14:11:07.710Z,65.17
2022-11-28T14:14:09.211Z,72.67
2022-11-28T14:17:22.860Z,61.20
2022-11-28T14:20:18.183Z,65.10
2022-11-28T14:23:32.729Z,65.53
2022-11-28T14:26:38.261Z,56.77
2022-11-28T14:29:58.821Z,63.33
2022-11-28T14:33:19.746Z,57.07
2022-11-28T14:36:49.759Z,56.60
2022-11-28T14:39:50.351Z,62.40
2022-11-28T14:43:00.905Z,61.30
2022-11-28T14:45:57.422Z,68.73
2022-11-28T14:48:48.308Z,75.73
2022-11-28T14:52:00.068Z,60.43
2022-11-28T14:55:15.239Z,60.80
2022-11-28T14:58:32.790Z,64.17
2022-11-28T15:01:21.018Z,72.03
2022-11-28T15:04:10.795Z,59.27
2022-11-28T15:06:53.083Z,60.53
2022-11-28T15:09:38.470Z,60.43
2022-11-28T15:12:33.043Z,68.67
2022-11-28T15:15:22.436Z,71.97
2022-11-28T15:18:10.270Z,64.10
2022-11-28T15:21:10.008Z,61.07
2022-11-28T15:23:49.807Z,67.03
2022-11-28T15:26:39.306Z,66.00
2022-11-28T15:29:24.685Z,69.90
2022-11-28T15:32:36.207Z,57.93
2022-11-28T15:35:24.782Z,59.50
2022-11-28T15:38:11.591Z,66.63
2022-11-28T15:40:58.901Z,70.07
2022-11-28T15:43:52.279Z,65.23
2022-11-28T15:46:49.552Z,68.43
2022-11-28T15:49:37.578Z,60.70
2022-11-28T15:52:22.555Z,55.47
2022-11-28T15:55:10.724Z,59.67
2022-11-28T15:57:57.251Z,64.23
2022-11-28T16:00:40.901Z,65.03
2022-11-28T16:03:33.159Z,62.60
2022-11-28T16:06:20.408Z,64.63
2022-11-28T16:09:24.649Z,53.30
2022-11-28T16:15:22.434Z,64.23
2022-11-28T16:18:09.593Z,66.50
2022-11-28T16:20:56.136Z,70.03
2022-11-28T16:23:49.708Z,54.33
2022-11-28T16:26:47.289Z,66.07
2022-11-28T16:29:41.498Z,64.73
2022-11-28T16:32:37.331Z,59.10
2022-11-28T16:35:41.574Z,60.13
2022-11-28T16:38:34.993Z,61.07
2022-11-28T16:41:32.614Z,65.60
2022-11-28T16:44:17.156Z,59.67
2022-11-28T16:47:08.330Z,52.90
2022-11-28T16:50:25.425Z,65.93
2022-11-28T16:53:08.885Z,50.73
2022-11-28T16:55:51.674Z,58.10
2022-11-28T16:58:38.888Z,55.13
2022-11-28T17:01:16.788Z,50.77
2022-11-28T17:03:59.011Z,54.37
2022-11-28T17:06:44.605Z,60.27
2022-11-28T17:09:23.370Z,51.07
2022-11-28T17:12:09.473Z,54.47
2022-11-28T17:14:50.758Z,51.63
2022-11-28T17:17:28.974Z,53.33
2022-11-28T17:20:10.994Z,65.17
2022-11-28T17:23:01.005Z,51.83
2022-11-28T17:25:45.091Z,53.53
2022-11-28T17:28:26.412Z,64.23
2022-11-28T17:31:11.733Z,55.37
2022-11-28T17:33:51.765Z,51.70
2022-11-28T17:36:29.520Z,50.43
2022-11-28T17:39:30.753Z,46.60
2022-11-28T17:42:08.006Z,48.57
2022-11-28T17:44:52.428Z,58.13
2022-11-28T17:47:30.151Z,58.07
2022-11-28T17:50:13.565Z,68.67
2022-11-28T17:52:53.788Z,51.33
2022-11-28T17:55:56.698Z,54.57
2022-11-28T17:58:33.515Z,48.10
2022-11-28T18:01:22.072Z,45.47
2022-11-28T18:04:03.538Z,49.03
2022-11-28T18:06:45.111Z,46.67
2022-11-28T18:09:24.872Z,44.50
2022-11-28T18:12:08.625Z,46.23
2022-11-28T18:14:52.598Z,54.80
2022-11-28T18:17:31.342Z,52.47
2022-11-28T18:20:10.386Z,44.83
2022-11-28T18:22:49.301Z,50.47
2022-11-28T18:25:28.759Z,59.23
2022-11-28T18:28:18.422Z,51.20
2022-11-28T18:30:56.927Z,49.63
2022-11-28T18:33:35.858Z,53.33
2022-11-28T18:36:23.059Z,50.37
2022-11-28T18:39:02.922Z,49.87
2022-11-28T18:41:44.520Z,50.50
2022-11-28T18:44:32.858Z,57.20
2022-11-28T18:47:12.883Z,43.60
2022-11-28T18:49:49.123Z,43.87
2022-11-28T18:52:25.383Z,46.80
2022-11-28T18:55:05.547Z,48.30
2022-11-28T18:57:43.177Z,51.03
2022-11-28T19:00:24.684Z,57.97
2022-11-28T19:03:02.170Z,42.33
2022-11-28T19:05:47.539Z,50.40
2022-11-28T19:08:24.871Z,55.00
2022-11-28T19:11:02.807Z,49.07
2022-11-28T19:13:40.521Z,58.73
2022-11-28T19:16:20.538Z,37.93
2022-11-28T19:18:57.456Z,55.10
2022-11-28T19:21:37.663Z,46.77
2022-11-28T19:24:17.214Z,55.23
2022-11-28T19:26:53.521Z,39.13
2022-11-28T19:29:31.111Z,46.20
2022-11-28T19:32:13.162Z,45.97
2022-11-28T19:34:54.010Z,41.40
2022-11-28T19:37:31.267Z,39.03
2022-11-28T19:40:09.202Z,36.50
2022-11-28T19:42:47.029Z,44.03
2022-11-28T19:45:24.407Z,51.37
2022-11-28T19:48:04.447Z,42.37
2022-11-28T19:50:41.877Z,49.73
2022-11-28T19:53:19.029Z,39.20
2022-11-28T19:55:56.180Z,43.20
2022-11-28T19:58:33.256Z,44.73
2022-11-28T20:01:14.157Z,46.00
2022-11-28T20:03:55.614Z,45.70
2022-11-28T20:06:33.443Z,44.13
2022-11-28T20:09:15.055Z,44.17
2022-11-28T20:11:52.195Z,44.50
2022-11-28T20:14:32.822Z,39.83
2022-11-28T20:17:09.695Z,49.03
2022-11-28T20:19:48.138Z,43.53
2022-11-28T20:22:26.252Z,35.13
2022-11-28T20:25:01.369Z,42.70
2022-11-28T20:27:36.781Z,35.90
2022-11-28T20:30:15.078Z,35.27
2022-11-28T20:32:51.583Z,38.93
2022-11-28T20:35:29.807Z,37.37
2022-11-28T20:38:05.222Z,37.53
2022-11-28T20:40:41.735Z,42.77
2022-11-28T20:43:17.745Z,38.43
2022-11-28T20:45:53.197Z,26.53
2022-11-28T20:48:29.786Z,33.00
2022-11-28T20:51:07.264Z,35.33
2022-11-28T20:53:42.852Z,32.97
2022-11-28T20:56:20.055Z,30.83
2022-11-28T20:58:54.908Z,35.03
2022-11-28T21:01:31.508Z,42.27
2022-11-28T21:04:08.493Z,35.63
2022-11-28T21:06:46.567Z,34.20
2022-11-28T21:09:23.017Z,29.80
2022-11-28T21:11:59.397Z,33.43
2022-11-28T21:14:35.394Z,33.90
2022-11-28T21:17:10.413Z,42.07
2022-11-28T21:19:45.921Z,43.07
2022-11-28T21:22:24.010Z,46.97
2022-11-28T21:24:59.094Z,40.77
2022-11-28T21:27:35.012Z,40.07
2022-11-28T21:30:11.954Z,35.57
2022-11-28T21:32:48.380Z,33.53
2022-11-28T21:35:24.373Z,39.03
2022-11-28T21:38:02.244Z,36.63
2022-11-28T21:40:37.245Z,35.43
2022-11-28T21:43:12.237Z,43.43
2022-11-28T21:45:47.169Z,45.00
2022-11-28T21:48:23.146Z,36.80
2022-11-28T21:50:59.268Z,38.67
2022-11-28T21:53:39.068Z,32.80
2022-11-28T21:56:17.687Z,39.93
2022-11-28T21:58:54.370Z,41.87
2022-11-28T22:01:32.300Z,49.30
2022-11-28T22:04:08.701Z,56.03
2022-11-28T22:06:46.156Z,39.20
2022-11-28T22:09:25.437Z,43.87
2022-11-28T22:12:02.303Z,42.83
2022-11-28T22:14:40.693Z,43.00
2022-11-28T22:17:16.845Z,43.50
2022-11-28T22:19:53.546Z,38.17
2022-11-28T22:22:30.236Z,53.43
2022-11-28T22:25:08.909Z,39.20
2022-11-28T22:27:44.863Z,38.57
2022-11-28T22:30:21.932Z,43.93
2022-11-28T22:32:58.527Z,43.53
2022-11-28T22:35:37.010Z,40.13
2022-11-28T22:38:13.383Z,34.33
2022-11-28T22:40:52.378Z,43.53
2022-11-28T22:43:29.161Z,36.13
2022-11-28T22:46:06.204Z,43.00
2022-11-28T22:48:44.940Z,36.10
2022-11-28T22:51:23.518Z,43.23
2022-11-28T22:54:02.063Z,35.80
2022-11-28T22:56:42.234Z,42.80
2022-11-28T22:59:20.027Z,46.03
2022-11-28T23:01:58.332Z,39.30
2022-11-28T23:04:35.760Z,35.50
2022-11-28T23:07:12.853Z,44.20
2022-11-28T23:09:52.720Z,40.43
2022-11-28T23:12:32.022Z,33.87
2022-11-28T23:15:09.415Z,46.33
2022-11-28T23:17:46.810Z,46.10
2022-11-28T23:20:23.991Z,43.33
2022-11-28T23:23:02.079Z,41.00
2022-11-28T23:25:43.632Z,44.37
2022-11-28T23:28:24.020Z,38.03
2022-11-28T23:31:00.208Z,47.70
2022-11-28T23:33:37.234Z,35.63
2022-11-28T23:36:21.387Z,46.50
2022-11-28T23:38:59.436Z,51.10
2022-11-28T23:41:37.115Z,42.27
2022-11-28T23:44:26.189Z,39.50
2022-11-28T23:47:03.729Z,42.93
2022-11-28T23:49:43.795Z,46.90
2022-11-28T23:52:22.652Z,45.20
2022-11-28T23:55:00.401Z,41.37
2022-11-28T23:57:37.365Z,49.40
